createdAt,value
2016-12-04T00:01:09.958Z,1009.82
2016-12-04T00:02:19.986Z,1009.76
2016-12-04T00:03:29.685Z,1009.78
2016-12-04T00:04:40.011Z,1009.78
2016-12-04T00:05:50.358Z,1009.79
2016-12-04T00:07:00.375Z,1009.8
2016-12-04T00:08:10.392Z,1009.8
2016-12-04T00:09:20.757Z,1009.81
2016-12-04T00:10:30.764Z,1009.83
2016-12-04T00:11:40.773Z,1009.85
2016-12-04T00:12:50.792Z,1009.86
2016-12-04T00:14:00.809Z,1009.8
2016-12-04T00:15:10.520Z,1009.85
2016-12-04T00:16:20.848Z,1009.8
2016-12-04T00:17:31.216Z,1009.79
2016-12-04T00:18:41.575Z,1009.85
2016-12-04T00:19:51.913Z,1009.83
2016-12-04T00:21:02.254Z,1009.82
2016-12-04T00:22:12.587Z,1009.83
2016-12-04T00:23:22.597Z,1009.81
2016-12-04T00:24:32.623Z,1009.79
2016-12-04T00:25:42.948Z,1009.86
2016-12-04T00:26:53.267Z,1009.82
2016-12-04T00:28:03.304Z,1009.81
2016-12-04T00:29:13.006Z,1009.84
2016-12-04T00:30:23.352Z,1009.86
2016-12-04T00:31:32.744Z,1009.85
2016-12-04T00:32:43.055Z,1009.88
2016-12-04T00:33:53.081Z,1009.88
2016-12-04T00:35:03.099Z,1009.88
2016-12-04T00:36:13.116Z,1009.91
2016-12-04T00:37:23.461Z,1009.95
2016-12-04T00:38:33.809Z,1009.95
2016-12-04T00:39:44.137Z,1009.96
2016-12-04T00:40:54.142Z,1009.93
2016-12-04T00:42:04.185Z,1009.95
2016-12-04T00:43:14.524Z,1009.95
2016-12-04T00:44:24.533Z,1009.99
2016-12-04T00:45:34.567Z,1010.03
2016-12-04T00:46:44.886Z,1010.04
2016-12-04T00:47:54.907Z,1010.03
2016-12-04T00:49:04.914Z,1010.05
2016-12-04T00:50:14.922Z,1010.06
2016-12-04T00:51:24.921Z,1010.02
2016-12-04T00:52:34.937Z,1010.06
2016-12-04T00:53:45.262Z,1010.05
2016-12-04T00:54:55.590Z,1010.01
2016-12-04T00:56:05.906Z,1010.04
2016-12-04T00:57:16.230Z,1009.98
2016-12-04T00:58:26.569Z,1010.03
2016-12-04T00:59:36.883Z,1010.01
2016-12-04T01:00:46.297Z,1010.02
2016-12-04T01:01:56.325Z,1009.99
2016-12-04T01:03:06.646Z,1010
2016-12-04T01:04:16.965Z,1010.03
2016-12-04T01:05:27.018Z,1010.07
2016-12-04T01:06:37.336Z,1010.14
2016-12-04T01:07:47.346Z,1010.13
2016-12-04T01:08:57.661Z,1010.18
2016-12-04T01:10:08.002Z,1010.16
2016-12-04T01:11:18.005Z,1010.15
2016-12-04T01:12:28.016Z,1010.15
2016-12-04T01:13:38.372Z,1010.11
2016-12-04T01:14:48.069Z,1010.11
2016-12-04T01:15:57.795Z,1010.13
2016-12-04T01:17:07.536Z,1010.17
2016-12-04T01:18:17.243Z,1010.14
2016-12-04T01:19:27.240Z,1010.13
2016-12-04T01:20:37.547Z,1010.09
2016-12-04T01:21:47.868Z,1010.05
2016-12-04T01:22:57.870Z,1010.07
2016-12-04T01:24:07.567Z,1010.1
2016-12-04T01:25:17.574Z,1010.06
2016-12-04T01:26:27.581Z,1010.08
2016-12-04T01:27:37.601Z,1010.03
2016-12-04T01:28:47.613Z,1010.04
2016-12-04T01:29:57.622Z,1010.02
2016-12-04T01:31:07.942Z,1010.03
2016-12-04T01:32:17.948Z,1010.04
2016-12-04T01:33:28.262Z,1010.02
2016-12-04T01:34:37.952Z,1010.01
2016-12-04T01:35:47.962Z,1010.04
2016-12-04T01:36:57.664Z,1010.04
2016-12-04T01:38:07.997Z,1010.04
2016-12-04T01:39:18.343Z,1010.04
2016-12-04T01:40:28.664Z,1010.01
2016-12-04T01:41:38.988Z,1010.03
2016-12-04T01:42:49.310Z,1010.01
2016-12-04T01:43:59.623Z,1010
2016-12-04T01:45:09.362Z,1010.01
2016-12-04T01:46:19.669Z,1010.01
2016-12-04T01:47:29.991Z,1010.05
2016-12-04T01:48:40.003Z,1010.04
2016-12-04T01:49:50.318Z,1010.07
2016-12-04T01:51:00.313Z,1010.06
2016-12-04T01:52:10.664Z,1010.05
2016-12-04T01:53:21.036Z,1010.06
2016-12-04T01:54:31.287Z,1010.04
2016-12-04T01:55:41.618Z,1010.03
2016-12-04T01:56:51.634Z,1010.05
2016-12-04T01:58:01.656Z,1010.05
2016-12-04T01:59:12.008Z,1010.06
2016-12-04T02:00:22.337Z,1010.06
2016-12-04T02:01:32.657Z,1010.06
2016-12-04T02:02:42.987Z,1010.03
2016-12-04T02:03:53.296Z,1009.96
2016-12-04T02:05:03.632Z,1010.03
2016-12-04T02:06:13.676Z,1009.99
2016-12-04T02:07:23.056Z,1009.98
2016-12-04T02:08:33.392Z,1009.93
2016-12-04T02:09:43.710Z,1009.96
2016-12-04T02:10:53.717Z,1010
2016-12-04T02:12:04.031Z,1009.97
2016-12-04T02:13:13.775Z,1009.91
2016-12-04T02:14:23.791Z,1009.97
2016-12-04T02:15:33.798Z,1009.97
2016-12-04T02:16:44.141Z,1009.95
2016-12-04T02:17:54.147Z,1009.96
2016-12-04T02:19:04.467Z,1009.97
2016-12-04T02:20:14.779Z,1009.96
2016-12-04T02:21:24.781Z,1009.96
2016-12-04T02:22:35.108Z,1009.94
2016-12-04T02:23:45.440Z,1009.98
2016-12-04T02:24:55.458Z,1009.91
2016-12-04T02:26:05.830Z,1009.93
2016-12-04T02:27:15.861Z,1009.88
2016-12-04T02:28:25.877Z,1009.87
2016-12-04T02:29:35.269Z,1009.9
2016-12-04T02:30:45.279Z,1009.96
2016-12-04T02:31:55.316Z,1009.95
2016-12-04T02:33:05.023Z,1009.94
2016-12-04T02:34:15.341Z,1009.94
2016-12-04T02:35:25.916Z,1009.97
2016-12-04T02:36:36.242Z,1009.96
2016-12-04T02:37:45.960Z,1009.99
2016-12-04T02:38:55.971Z,1009.96
2016-12-04T02:40:05.679Z,1009.96
2016-12-04T02:41:16.003Z,1009.95
2016-12-04T02:42:26.322Z,1009.94
2016-12-04T02:43:36.638Z,1009.96
2016-12-04T02:44:46.637Z,1009.97
2016-12-04T02:45:56.661Z,1009.93
2016-12-04T02:47:06.978Z,1009.96
2016-12-04T02:48:16.979Z,1009.95
2016-12-04T02:49:26.678Z,1009.95
2016-12-04T02:50:36.999Z,1009.97
2016-12-04T02:51:47.374Z,1009.9
2016-12-04T02:52:57.381Z,1009.92
2016-12-04T02:54:07.754Z,1009.93
2016-12-04T02:55:17.753Z,1009.9
2016-12-04T02:56:27.762Z,1009.94
2016-12-04T02:57:37.467Z,1009.91
2016-12-04T02:58:47.158Z,1009.89
2016-12-04T02:59:57.487Z,1009.88
2016-12-04T03:01:07.813Z,1009.86
2016-12-04T03:32:35.567Z,1010.09
2016-12-04T03:33:45.565Z,1010.1
2016-12-04T03:34:55.565Z,1010.07
2016-12-04T03:36:05.582Z,1010.08
2016-12-04T03:37:15.904Z,1010.09
2016-12-04T03:38:25.923Z,1010.04
2016-12-04T03:39:35.945Z,1010.05
2016-12-04T03:40:46.252Z,1010.15
2016-12-04T03:41:56.245Z,1010.1
2016-12-04T03:43:06.258Z,1010.07
2016-12-04T03:44:16.265Z,1010.11
2016-12-04T03:45:26.270Z,1010.05
2016-12-04T03:46:36.601Z,1010.05
2016-12-04T03:47:46.617Z,1010.06
2016-12-04T03:48:56.949Z,1010.06
2016-12-04T03:50:06.646Z,1010.11
2016-12-04T03:51:16.967Z,1010.06
2016-12-04T03:52:27.285Z,1010.09
2016-12-04T03:53:37.605Z,1010.1
2016-12-04T03:54:47.643Z,1010.07
2016-12-04T03:55:57.705Z,1010.09
2016-12-04T03:57:07.110Z,1010.13
2016-12-04T03:58:17.427Z,1010.11
2016-12-04T03:59:27.756Z,1010.1
2016-12-04T04:00:37.465Z,1010.1
2016-12-04T04:01:47.466Z,1010.1
2016-12-04T04:02:57.478Z,1010.11
2016-12-04T04:04:07.806Z,1010.1
2016-12-04T04:05:17.803Z,1010.09
2016-12-04T04:06:27.846Z,1010.12
2016-12-04T04:07:37.854Z,1010.13
2016-12-04T04:08:48.179Z,1010.16
2016-12-04T04:09:58.495Z,1010.14
2016-12-04T04:11:08.501Z,1010.14
2016-12-04T04:12:18.822Z,1010.16
2016-12-04T04:13:28.818Z,1010.15
2016-12-04T04:14:39.151Z,1010.19
2016-12-04T04:15:49.487Z,1010.2
2016-12-04T04:16:59.814Z,1010.18
2016-12-04T04:18:10.136Z,1010.19
2016-12-04T04:19:20.467Z,1010.23
2016-12-04T04:20:30.794Z,1010.16
2016-12-04T04:21:40.803Z,1010.19
2016-12-04T04:22:50.822Z,1010.19
2016-12-04T04:24:01.141Z,1010.23
2016-12-04T04:25:11.496Z,1010.19
2016-12-04T04:26:21.509Z,1010.22
2016-12-04T04:27:31.514Z,1010.18
2016-12-04T04:28:41.835Z,1010.19
2016-12-04T04:29:51.845Z,1010.13
2016-12-04T04:31:02.185Z,1010.23
2016-12-04T04:32:12.541Z,1010.23
2016-12-04T04:33:22.860Z,1010.22
2016-12-04T04:34:32.887Z,1010.22
2016-12-04T04:35:43.206Z,1010.23
2016-12-04T04:36:53.538Z,1010.22
2016-12-04T04:38:03.875Z,1010.24
2016-12-04T04:39:14.192Z,1010.28
2016-12-04T04:40:24.195Z,1010.23
2016-12-04T04:41:34.223Z,1010.23
2016-12-04T04:42:44.548Z,1010.23
2016-12-04T04:43:54.561Z,1010.24
2016-12-04T04:45:04.896Z,1010.24
2016-12-04T04:46:15.204Z,1010.27
2016-12-04T04:47:25.531Z,1010.29
2016-12-04T04:48:35.537Z,1010.29
2016-12-04T04:49:45.850Z,1010.28
2016-12-04T04:50:55.859Z,1010.3
2016-12-04T04:52:06.177Z,1010.3
2016-12-04T04:53:16.493Z,1010.34
2016-12-04T04:54:26.490Z,1010.34
2016-12-04T04:55:36.503Z,1010.38
2016-12-04T04:56:46.234Z,1010.34
2016-12-04T04:57:56.246Z,1010.33
2016-12-04T04:59:06.567Z,1010.35
2016-12-04T05:00:16.271Z,1010.37
2016-12-04T05:01:25.982Z,1010.38
2016-12-04T05:02:36.300Z,1010.32
2016-12-04T05:03:46.324Z,1010.32
2016-12-04T05:04:56.335Z,1010.36
2016-12-04T05:06:06.377Z,1010.36
2016-12-04T05:07:16.389Z,1010.32
2016-12-04T05:08:26.737Z,1010.37
2016-12-04T05:09:36.453Z,1010.35
2016-12-04T05:10:46.480Z,1010.35
2016-12-04T05:11:56.517Z,1010.38
2016-12-04T05:13:06.228Z,1010.35
2016-12-04T05:14:15.939Z,1010.36
2016-12-04T05:15:26.257Z,1010.36
2016-12-04T05:16:36.269Z,1010.35
2016-12-04T05:17:46.589Z,1010.38
2016-12-04T05:18:56.906Z,1010.34
2016-12-04T05:20:06.844Z,1010.4
2016-12-04T05:21:16.860Z,1010.41
2016-12-04T05:22:26.883Z,1010.39
2016-12-04T05:23:37.230Z,1010.41
2016-12-04T05:24:47.231Z,1010.41
2016-12-04T05:25:57.554Z,1010.38
2016-12-04T05:27:07.888Z,1010.4
2016-12-04T05:28:17.902Z,1010.4
2016-12-04T05:29:27.932Z,1010.41
2016-12-04T05:30:38.256Z,1010.37
2016-12-04T05:31:48.261Z,1010.39
2016-12-04T05:32:58.588Z,1010.36
2016-12-04T05:34:08.600Z,1010.38
2016-12-04T05:35:18.291Z,1010.35
2016-12-04T05:36:27.673Z,1010.39
2016-12-04T05:37:37.679Z,1010.34
2016-12-04T05:38:47.372Z,1010.4
2016-12-04T05:39:57.373Z,1010.42
2016-12-04T05:41:07.378Z,1010.38
2016-12-04T05:42:17.706Z,1010.47
2016-12-04T05:43:27.722Z,1010.45
2016-12-04T05:44:38.036Z,1010.42
2016-12-04T05:45:48.366Z,1010.41
2016-12-04T05:46:58.727Z,1010.46
2016-12-04T05:48:09.045Z,1010.45
2016-12-04T05:49:19.060Z,1010.45
2016-12-04T05:50:29.380Z,1010.43
2016-12-04T05:51:39.386Z,1010.47
2016-12-04T05:52:49.396Z,1010.47
2016-12-04T05:53:59.702Z,1010.45
2016-12-04T05:55:10.031Z,1010.47
2016-12-04T05:56:20.359Z,1010.5
2016-12-04T05:57:30.362Z,1010.48
2016-12-04T05:58:40.679Z,1010.48
2016-12-04T05:59:50.371Z,1010.47
2016-12-04T06:01:00.373Z,1010.48
2016-12-04T06:02:10.689Z,1010.48
2016-12-04T06:03:21.002Z,1010.48
2016-12-04T06:04:30.704Z,1010.48
2016-12-04T06:05:40.714Z,1010.49
2016-12-04T06:06:51.026Z,1010.48
2016-12-04T06:08:01.357Z,1010.51
2016-12-04T06:09:11.400Z,1010.54
2016-12-04T06:10:21.718Z,1010.54
2016-12-04T06:11:32.025Z,1010.51
2016-12-04T06:12:42.020Z,1010.58
2016-12-04T06:13:52.032Z,1010.58
2016-12-04T06:15:02.047Z,1010.59
2016-12-04T06:16:12.379Z,1010.64
2016-12-04T06:17:22.391Z,1010.67
2016-12-04T06:18:32.718Z,1010.61
2016-12-04T06:19:42.735Z,1010.64
2016-12-04T06:20:52.757Z,1010.69
2016-12-04T06:22:03.118Z,1010.71
2016-12-04T06:23:13.444Z,1010.72
2016-12-04T06:24:23.136Z,1010.74
2016-12-04T06:25:32.843Z,1010.78
2016-12-04T06:26:42.851Z,1010.79
2016-12-04T06:27:53.226Z,1010.76
2016-12-04T06:29:03.563Z,1010.8
2016-12-04T06:30:13.889Z,1010.79
2016-12-04T06:31:23.893Z,1010.81
2016-12-04T06:32:34.215Z,1010.79
2016-12-04T06:33:44.550Z,1010.81
2016-12-04T06:34:54.864Z,1010.82
2016-12-04T06:36:04.874Z,1010.86
2016-12-04T06:37:15.200Z,1010.88
2016-12-04T06:38:25.533Z,1010.9
2016-12-04T06:39:35.549Z,1010.92
2016-12-04T06:40:45.562Z,1010.97
2016-12-04T06:41:55.568Z,1010.93
2016-12-04T06:43:05.896Z,1010.91
2016-12-04T06:44:16.211Z,1010.96
2016-12-04T06:45:25.913Z,1010.94
2016-12-04T06:46:35.656Z,1011
2016-12-04T06:47:45.666Z,1011.03
2016-12-04T06:48:55.988Z,1011.04
2016-12-04T06:50:05.996Z,1011.02
2016-12-04T06:51:16.312Z,1011.04
2016-12-04T06:52:26.013Z,1011.09
2016-12-04T06:53:36.040Z,1011.04
2016-12-04T06:54:46.413Z,1011.04
2016-12-04T06:55:56.733Z,1011.05
2016-12-04T06:57:07.057Z,1010.99
2016-12-04T06:58:16.744Z,1011.08
2016-12-04T06:59:27.064Z,1011.02
2016-12-04T07:00:37.380Z,1011.07
2016-12-04T07:01:47.743Z,1011.04
2016-12-04T07:02:57.758Z,1011.06
2016-12-04T07:04:08.088Z,1011.08
2016-12-04T07:05:18.092Z,1011.08
2016-12-04T07:06:28.113Z,1011.08
2016-12-04T07:07:38.440Z,1011.09
2016-12-04T07:08:48.757Z,1011.13
2016-12-04T07:09:59.095Z,1011.12
2016-12-04T07:11:09.119Z,1011.14
2016-12-04T07:12:19.449Z,1011.12
2016-12-04T07:13:29.466Z,1011.11
2016-12-04T07:14:39.483Z,1011.18
2016-12-04T07:15:48.872Z,1011.17
2016-12-04T07:16:58.869Z,1011.18
2016-12-04T07:18:08.888Z,1011.19
2016-12-04T07:19:18.922Z,1011.22
2016-12-04T07:20:28.626Z,1011.25
2016-12-04T07:21:38.328Z,1011.24
2016-12-04T07:22:48.338Z,1011.31
2016-12-04T07:23:58.375Z,1011.27
2016-12-04T07:25:08.705Z,1011.27
2016-12-04T07:26:19.032Z,1011.27
2016-12-04T07:27:29.358Z,1011.28
2016-12-04T07:28:39.684Z,1011.29
2016-12-04T07:29:49.721Z,1011.33
2016-12-04T07:31:00.059Z,1011.34
2016-12-04T07:32:09.765Z,1011.33
2016-12-04T07:33:20.102Z,1011.35
2016-12-04T07:34:30.113Z,1011.31
2016-12-04T07:35:40.130Z,1011.37
2016-12-04T07:36:50.146Z,1011.37
2016-12-04T07:37:59.846Z,1011.36
2016-12-04T07:39:09.861Z,1011.34
2016-12-04T07:40:20.166Z,1011.34
2016-12-04T07:41:30.173Z,1011.38
2016-12-04T07:42:40.176Z,1011.38
2016-12-04T07:43:50.187Z,1011.43
2016-12-04T07:45:00.197Z,1011.45
2016-12-04T07:46:10.530Z,1011.43
2016-12-04T07:47:20.552Z,1011.45
2016-12-04T07:48:30.863Z,1011.43
2016-12-04T07:49:40.882Z,1011.49
2016-12-04T07:50:50.885Z,1011.45
2016-12-04T07:52:00.897Z,1011.5
2016-12-04T07:53:10.924Z,1011.49
2016-12-04T07:54:21.253Z,1011.49
2016-12-04T07:55:31.270Z,1011.53
2016-12-04T07:56:41.595Z,1011.49
2016-12-04T07:57:51.922Z,1011.5
2016-12-04T07:59:02.252Z,1011.53
2016-12-04T08:00:12.271Z,1011.55
2016-12-04T08:01:22.616Z,1011.55
2016-12-04T08:02:32.634Z,1011.58
2016-12-04T08:03:42.650Z,1011.57
2016-12-04T08:04:52.967Z,1011.58
2016-12-04T08:06:03.304Z,1011.59
2016-12-04T08:07:13.883Z,1011.62
2016-12-04T08:08:23.888Z,1011.61
2016-12-04T08:09:33.909Z,1011.64
2016-12-04T08:10:43.926Z,1011.63
2016-12-04T08:11:54.247Z,1011.65
2016-12-04T08:13:04.279Z,1011.7
2016-12-04T08:14:14.600Z,1011.72
2016-12-04T08:15:24.926Z,1011.83
2016-12-04T08:16:35.249Z,1011.8
2016-12-04T08:17:45.581Z,1011.81
2016-12-04T08:18:55.302Z,1011.82
2016-12-04T08:20:05.314Z,1011.82
2016-12-04T08:21:15.326Z,1011.84
2016-12-04T08:22:25.653Z,1011.83
2016-12-04T08:23:35.972Z,1011.79
2016-12-04T08:24:46.283Z,1011.84
2016-12-04T08:25:56.603Z,1011.79
2016-12-04T08:27:06.941Z,1011.83
2016-12-04T08:28:17.267Z,1011.79
2016-12-04T08:29:27.005Z,1011.82
2016-12-04T08:30:37.336Z,1011.82
2016-12-04T08:31:47.664Z,1011.85
2016-12-04T08:32:58.002Z,1011.84
2016-12-04T08:34:08.367Z,1011.88
2016-12-04T08:35:18.377Z,1011.88
2016-12-04T08:36:28.411Z,1011.88
2016-12-04T08:37:38.435Z,1011.87
2016-12-04T08:38:48.769Z,1011.89
2016-12-04T08:39:58.805Z,1011.84
2016-12-04T08:41:08.812Z,1011.94
2016-12-04T08:42:19.149Z,1011.92
2016-12-04T08:43:29.500Z,1011.97
2016-12-04T08:44:39.818Z,1012
2016-12-04T08:45:49.828Z,1012.01
2016-12-04T08:47:00.181Z,1012.05
2016-12-04T08:48:10.194Z,1012.07
2016-12-04T08:49:19.900Z,1012.05
2016-12-04T08:50:29.600Z,1012.03
2016-12-04T08:51:39.614Z,1012.06
2016-12-04T08:52:49.655Z,1012.05
2016-12-04T08:53:59.046Z,1012.1
2016-12-04T08:55:08.443Z,1012.12
2016-12-04T08:56:18.783Z,1012.11
2016-12-04T08:57:28.797Z,1012.13
2016-12-04T08:58:39.119Z,1012.15
2016-12-04T08:59:49.440Z,1012.18
2016-12-04T09:00:59.133Z,1012.16
2016-12-04T09:02:09.449Z,1012.18
2016-12-04T09:03:19.770Z,1012.18
2016-12-04T09:04:30.087Z,1012.2
2016-12-04T09:05:40.439Z,1012.2
2016-12-04T09:06:50.755Z,1012.18
2016-12-04T09:08:01.063Z,1012.15
2016-12-04T09:09:11.380Z,1012.17
2016-12-04T09:10:21.081Z,1012.16
2016-12-04T09:11:31.087Z,1012.12
2016-12-04T09:12:41.109Z,1012.13
2016-12-04T09:13:51.438Z,1012.09
2016-12-04T09:15:01.155Z,1012.13
2016-12-04T09:16:11.471Z,1012.11
2016-12-04T09:17:21.499Z,1012.12
2016-12-04T09:18:31.818Z,1012.11
2016-12-04T09:19:41.825Z,1012.16
2016-12-04T09:20:52.149Z,1012.12
2016-12-04T09:22:02.487Z,1012.1
2016-12-04T09:23:12.498Z,1012.08
2016-12-04T09:24:22.202Z,1012.1
2016-12-04T09:25:32.541Z,1012.11
2016-12-04T09:26:42.558Z,1012.08
2016-12-04T09:27:52.896Z,1012.12
2016-12-04T09:29:03.226Z,1012.11
2016-12-04T09:30:13.552Z,1012.11
2016-12-04T09:31:23.565Z,1012.06
2016-12-04T09:32:33.903Z,1012.06
2016-12-04T09:33:43.965Z,1012.04
2016-12-04T09:34:53.700Z,1012.03
2016-12-04T09:36:03.399Z,1011.99
2016-12-04T09:37:13.115Z,1011.94
2016-12-04T09:38:23.151Z,1011.94
2016-12-04T09:39:33.174Z,1011.93
2016-12-04T09:40:42.900Z,1011.9
2016-12-04T09:41:52.918Z,1011.9
2016-12-04T09:43:02.941Z,1011.93
2016-12-04T09:44:13.260Z,1011.93
2016-12-04T09:45:23.321Z,1011.9
2016-12-04T09:46:33.379Z,1011.91
2016-12-04T09:47:43.389Z,1011.89
2016-12-04T09:48:53.735Z,1011.89
2016-12-04T09:50:03.744Z,1011.89
2016-12-04T09:51:13.756Z,1011.87
2016-12-04T09:52:23.791Z,1011.87
2016-12-04T09:53:34.116Z,1011.89
2016-12-04T09:54:44.127Z,1011.91
2016-12-04T09:55:54.461Z,1011.93
2016-12-04T09:57:03.884Z,1011.9
2016-12-04T09:58:13.894Z,1011.96
2016-12-04T09:59:24.232Z,1011.92
2016-12-04T10:00:34.260Z,1011.93
2016-12-04T10:01:44.284Z,1011.93
2016-12-04T10:02:54.307Z,1011.93
2016-12-04T10:04:04.096Z,1011.92
2016-12-04T10:05:13.502Z,1011.94
2016-12-04T10:06:23.535Z,1011.94
2016-12-04T10:07:33.540Z,1011.94
2016-12-04T10:08:43.321Z,1011.94
2016-12-04T10:09:54.127Z,1011.94
2016-12-04T10:11:04.460Z,1011.97
2016-12-04T10:12:14.588Z,1011.95
2016-12-04T10:13:24.917Z,1011.97
2016-12-04T10:14:34.944Z,1011.98
2016-12-04T10:15:45.297Z,1011.97
2016-12-04T10:16:55.318Z,1011.96
2016-12-04T10:18:05.640Z,1011.93
2016-12-04T10:19:15.987Z,1011.93
2016-12-04T10:20:26.012Z,1011.91
2016-12-04T10:21:36.346Z,1011.94
2016-12-04T10:22:46.672Z,1011.95
2016-12-04T10:23:56.385Z,1011.93
2016-12-04T10:25:06.707Z,1011.9
2016-12-04T10:26:16.736Z,1011.94
2016-12-04T10:27:27.073Z,1011.96
2016-12-04T10:28:37.395Z,1011.94
2016-12-04T10:29:47.092Z,1011.93
2016-12-04T10:30:57.423Z,1011.95
2016-12-04T10:32:07.445Z,1011.96
2016-12-04T10:33:17.151Z,1011.95
2016-12-04T10:34:26.539Z,1011.98
2016-12-04T10:35:36.550Z,1011.93
2016-12-04T10:36:46.871Z,1011.94
2016-12-04T10:37:56.889Z,1011.95
2016-12-04T10:39:06.275Z,1011.95
2016-12-04T10:40:16.607Z,1011.92
2016-12-04T10:41:26.944Z,1011.94
2016-12-04T10:42:37.286Z,1011.89
2016-12-04T10:43:47.603Z,1011.89
2016-12-04T10:44:57.619Z,1011.87
2016-12-04T10:46:07.940Z,1011.85
2016-12-04T10:47:18.277Z,1011.83
2016-12-04T10:48:28.615Z,1011.83
2016-12-04T10:49:38.636Z,1011.81
2016-12-04T10:50:48.659Z,1011.81
2016-12-04T10:51:58.700Z,1011.82
2016-12-04T10:53:08.413Z,1011.87
2016-12-04T10:54:18.454Z,1011.83
2016-12-04T10:55:28.785Z,1011.9
2016-12-04T10:56:39.108Z,1011.87
2016-12-04T10:57:49.118Z,1011.88
2016-12-04T10:58:59.135Z,1011.87
2016-12-04T11:00:09.141Z,1011.87
2016-12-04T11:01:19.463Z,1011.89
2016-12-04T11:02:29.479Z,1011.85
2016-12-04T11:03:39.792Z,1011.86
2016-12-04T11:04:49.803Z,1011.79
2016-12-04T11:06:00.149Z,1011.83
2016-12-04T11:07:10.173Z,1011.79
2016-12-04T11:08:20.489Z,1011.83
2016-12-04T11:09:30.535Z,1011.82
2016-12-04T11:10:40.557Z,1011.79
2016-12-04T11:11:50.898Z,1011.78
2016-12-04T11:18:38.973Z,1011.79
2016-12-04T11:19:49.353Z,1011.78
2016-12-04T11:20:59.682Z,1011.78
2016-12-04T11:22:09.997Z,1011.77
2016-12-04T11:23:20.024Z,1011.8
2016-12-04T11:24:30.360Z,1011.81
2016-12-04T11:25:40.697Z,1011.82
2016-12-04T11:26:51.043Z,1011.82
2016-12-04T11:28:01.053Z,1011.82
2016-12-04T11:29:11.392Z,1011.85
2016-12-04T11:30:21.715Z,1011.81
2016-12-04T11:31:31.722Z,1011.8
2016-12-04T11:32:41.767Z,1011.81
2016-12-04T11:33:51.486Z,1011.84
2016-12-04T11:35:01.512Z,1011.81
2016-12-04T11:36:11.857Z,1011.82
2016-12-04T11:37:22.198Z,1011.78
2016-12-04T11:38:31.607Z,1011.72
2016-12-04T11:39:41.333Z,1011.76
2016-12-04T11:40:51.053Z,1011.78
2016-12-04T11:42:01.413Z,1011.77
2016-12-04T11:43:11.735Z,1011.77
2016-12-04T11:44:22.083Z,1011.73
2016-12-04T11:45:32.420Z,1011.71
2016-12-04T11:46:42.439Z,1011.73
2016-12-04T11:47:52.768Z,1011.75
2016-12-04T11:49:03.091Z,1011.68
2016-12-04T11:50:13.117Z,1011.71
2016-12-04T11:51:22.837Z,1011.65
2016-12-04T11:52:33.176Z,1011.68
2016-12-04T11:53:43.513Z,1011.67
2016-12-04T11:54:53.846Z,1011.64
2016-12-04T11:56:03.238Z,1011.66
2016-12-04T11:57:13.257Z,1011.65
2016-12-04T11:58:23.261Z,1011.61
2016-12-04T11:59:33.597Z,1011.62
2016-12-04T12:00:43.629Z,1011.64
2016-12-04T12:01:53.969Z,1011.58
2016-12-04T12:03:04.316Z,1011.58
2016-12-04T12:04:14.656Z,1011.58
2016-12-04T12:05:24.666Z,1011.6
2016-12-04T12:06:35.019Z,1011.65
2016-12-04T12:07:45.056Z,1011.66
2016-12-04T12:08:55.395Z,1011.64
2016-12-04T12:10:05.723Z,1011.62
2016-12-04T12:11:15.425Z,1011.64
2016-12-04T12:12:25.785Z,1011.61
2016-12-04T12:13:36.129Z,1011.59
2016-12-04T12:14:46.145Z,1011.64
2016-12-04T12:15:56.531Z,1011.63
2016-12-04T12:17:06.879Z,1011.62
2016-12-04T12:18:17.218Z,1011.6
2016-12-04T12:19:27.550Z,1011.59
2016-12-04T12:20:37.273Z,1011.58
2016-12-04T12:21:47.302Z,1011.6
2016-12-04T12:22:57.006Z,1011.56
2016-12-04T12:24:07.363Z,1011.55
2016-12-04T12:25:17.691Z,1011.58
2016-12-04T12:26:27.710Z,1011.58
2016-12-04T12:27:38.043Z,1011.57
2016-12-04T12:28:48.378Z,1011.58
2016-12-04T12:29:58.428Z,1011.6
2016-12-04T12:31:08.773Z,1011.56
2016-12-04T12:32:18.795Z,1011.6
2016-12-04T12:33:28.835Z,1011.59
2016-12-04T12:34:38.848Z,1011.64
2016-12-04T12:35:49.198Z,1011.62
2016-12-04T12:36:59.538Z,1011.64
2016-12-04T12:38:09.586Z,1011.62
2016-12-04T12:39:19.909Z,1011.71
2016-12-04T12:40:29.925Z,1011.68
2016-12-04T12:41:39.966Z,1011.69
2016-12-04T12:42:49.986Z,1011.64
2016-12-04T12:44:00.319Z,1011.66
2016-12-04T12:45:10.348Z,1011.65
2016-12-04T12:46:20.688Z,1011.65
2016-12-04T12:47:30.716Z,1011.67
2016-12-04T12:48:41.048Z,1011.62
2016-12-04T12:49:51.058Z,1011.62
2016-12-04T12:51:00.760Z,1011.59
2016-12-04T12:52:10.773Z,1011.56
2016-12-04T12:53:20.798Z,1011.54
2016-12-04T12:54:31.116Z,1011.6
2016-12-04T12:55:41.153Z,1011.56
2016-12-04T12:56:51.162Z,1011.58
2016-12-04T12:58:01.200Z,1011.57
2016-12-04T12:59:11.536Z,1011.56
2016-12-04T13:00:21.224Z,1011.5
2016-12-04T13:01:31.241Z,1011.58
2016-12-04T13:02:41.571Z,1011.58
2016-12-04T13:03:51.278Z,1011.53
2016-12-04T13:05:01.368Z,1011.51
2016-12-04T13:06:11.714Z,1011.52
2016-12-04T13:07:21.413Z,1011.53
2016-12-04T13:08:31.973Z,1011.53
2016-12-04T13:09:41.700Z,1011.53
2016-12-04T13:10:52.036Z,1011.54
2016-12-04T13:12:02.372Z,1011.52
2016-12-04T13:13:12.400Z,1011.54
2016-12-04T13:14:22.401Z,1011.56
2016-12-04T13:15:32.435Z,1011.54
2016-12-04T13:16:42.436Z,1011.57
2016-12-04T13:17:52.776Z,1011.56
2016-12-04T13:19:03.103Z,1011.58
2016-12-04T13:20:13.150Z,1011.63
2016-12-04T13:21:23.487Z,1011.64
2016-12-04T13:22:33.506Z,1011.67
2016-12-04T13:23:43.524Z,1011.65
2016-12-04T13:24:53.235Z,1011.69
2016-12-04T13:26:03.557Z,1011.68
2016-12-04T13:27:13.883Z,1011.65
2016-12-04T13:28:23.930Z,1011.68
2016-12-04T13:29:34.261Z,1011.67
2016-12-04T13:30:44.628Z,1011.66
2016-12-04T13:31:54.669Z,1011.65
2016-12-04T13:33:05.016Z,1011.66
2016-12-04T13:34:15.353Z,1011.66
2016-12-04T13:35:25.369Z,1011.65
2016-12-04T13:36:35.702Z,1011.7
2016-12-04T13:37:46.028Z,1011.66
2016-12-04T13:38:56.374Z,1011.68
2016-12-04T13:40:06.712Z,1011.68
2016-12-04T13:41:16.742Z,1011.66
2016-12-04T13:42:27.078Z,1011.67
2016-12-04T13:43:37.422Z,1011.71
2016-12-04T13:44:47.755Z,1011.72
2016-12-04T13:45:57.477Z,1011.74
2016-12-04T13:47:07.545Z,1011.75
2016-12-04T13:48:17.257Z,1011.71
2016-12-04T13:49:27.260Z,1011.7
2016-12-04T13:50:37.596Z,1011.71
2016-12-04T13:51:47.917Z,1011.73
2016-12-04T13:52:57.920Z,1011.69
2016-12-04T13:54:07.616Z,1011.72
2016-12-04T13:55:17.952Z,1011.73
2016-12-04T13:56:27.964Z,1011.75
2016-12-04T13:57:37.686Z,1011.73
2016-12-04T13:58:48.046Z,1011.76
2016-12-04T13:59:58.364Z,1011.68
2016-12-04T14:01:08.079Z,1011.7
2016-12-04T14:02:17.786Z,1011.72
2016-12-04T14:03:28.143Z,1011.71
2016-12-04T14:04:37.572Z,1011.71
2016-12-04T14:05:47.612Z,1011.72
2016-12-04T14:06:57.331Z,1011.73
2016-12-04T14:08:07.679Z,1011.73
2016-12-04T14:09:18.009Z,1011.73
2016-12-04T14:10:28.349Z,1011.67
2016-12-04T14:11:38.676Z,1011.68
2016-12-04T14:12:48.685Z,1011.76
2016-12-04T14:13:58.712Z,1011.71
2016-12-04T14:15:08.767Z,1011.69
2016-12-04T14:16:19.109Z,1011.75
2016-12-04T14:17:28.815Z,1011.72
2016-12-04T14:18:38.829Z,1011.7
2016-12-04T14:19:49.156Z,1011.7
2016-12-04T14:20:59.161Z,1011.73
2016-12-04T14:22:09.200Z,1011.75
2016-12-04T14:23:19.546Z,1011.75
2016-12-04T14:24:29.569Z,1011.77
2016-12-04T14:25:39.900Z,1011.78
2016-12-04T14:26:50.230Z,1011.79
2016-12-04T14:27:59.930Z,1011.77
2016-12-04T14:29:09.964Z,1011.82
2016-12-04T14:30:20.305Z,1011.83
2016-12-04T14:31:30.637Z,1011.81
2016-12-04T14:32:40.572Z,1011.8
2016-12-04T14:33:50.896Z,1011.8
2016-12-04T14:35:00.932Z,1011.81
2016-12-04T14:36:11.299Z,1011.79
2016-12-04T14:37:21.003Z,1011.81
2016-12-04T14:38:31.024Z,1011.81
2016-12-04T14:39:41.343Z,1011.82
2016-12-04T14:40:51.671Z,1011.82
2016-12-04T14:42:01.373Z,1011.8
2016-12-04T14:43:11.092Z,1011.79
2016-12-04T14:44:20.504Z,1011.79
2016-12-04T14:45:30.210Z,1011.79
2016-12-04T14:46:39.916Z,1011.8
2016-12-04T14:47:49.948Z,1011.79